createdAt,value
2018-11-26T00:00:18.666Z,15.6
2018-11-26T00:02:19.447Z,16.1
2018-11-26T00:04:19.241Z,15.9
2018-11-26T00:06:18.878Z,16.8
2018-11-26T00:08:18.656Z,17.3
2018-11-26T00:10:18.909Z,16.2
2018-11-26T00:12:18.670Z,17.9
2018-11-26T00:14:19.443Z,15.5
2018-11-26T00:16:18.659Z,16.2
2018-11-26T00:18:18.543Z,16.9
2018-11-26T00:20:19.366Z,16.8
2018-11-26T00:22:19.140Z,15.8
2018-11-26T00:24:18.929Z,17.3
2018-11-26T00:26:19.082Z,17.9
2018-11-26T00:28:18.864Z,17.8
2018-11-26T00:30:18.631Z,18.4
2018-11-26T00:32:19.415Z,19
2018-11-26T00:34:19.201Z,17.4
2018-11-26T00:36:18.775Z,18.6
2018-11-26T00:38:18.560Z,18.4
2018-11-26T00:40:18.827Z,17.6
2018-11-26T00:42:18.595Z,17.4
2018-11-26T00:44:19.375Z,17.8
2018-11-26T00:46:18.775Z,16.6
2018-11-26T00:48:18.580Z,16.2
2018-11-26T00:50:19.407Z,16.1
2018-11-26T00:52:19.198Z,16.2
2018-11-26T00:54:19.002Z,17.1
2018-11-26T00:56:18.633Z,16.6
2018-11-26T00:58:19.430Z,16.1
2018-11-26T01:00:19.256Z,16.3
2018-11-26T01:02:19.042Z,15.7
2018-11-26T01:04:18.824Z,14.8
2018-11-26T01:06:18.941Z,14.2
2018-11-26T01:08:18.714Z,15.1
2018-11-26T01:10:18.962Z,15.2
2018-11-26T01:12:18.730Z,15.2
2018-11-26T01:14:18.522Z,15.4
2018-11-26T01:16:18.919Z,16.1
2018-11-26T01:18:18.765Z,16
2018-11-26T01:20:18.540Z,15.6
2018-11-26T01:22:19.304Z,15
2018-11-26T01:24:19.067Z,15
2018-11-26T01:26:19.296Z,16.2
2018-11-26T01:28:19.107Z,16
2018-11-26T01:30:18.929Z,14.9
2018-11-26T01:32:18.713Z,14.9
2018-11-26T01:34:18.506Z,16.1
2018-11-26T01:36:19.341Z,15.9
2018-11-26T01:38:19.109Z,17.2
2018-11-26T01:40:19.385Z,16.7
2018-11-26T01:42:19.168Z,18.6
2018-11-26T01:44:18.960Z,18.2
2018-11-26T01:46:19.116Z,18.4
2018-11-26T01:48:18.888Z,19.2
2018-11-26T01:50:18.718Z,19.7
2018-11-26T01:52:18.521Z,19.4
2018-11-26T01:54:19.312Z,17.5
2018-11-26T01:56:19.430Z,17.4
2018-11-26T01:58:19.205Z,20
2018-11-26T02:00:19.005Z,19.5
2018-11-26T02:02:18.774Z,19.8
2018-11-26T02:04:18.533Z,18.9
2018-11-26T02:06:19.136Z,17.9
2018-11-26T02:08:18.904Z,17.6
2018-11-26T02:10:19.154Z,19.2
2018-11-26T02:12:18.934Z,21.3
2018-11-26T02:14:18.720Z,18.1
2018-11-26T02:16:19.418Z,19.8
2018-11-26T02:18:19.293Z,19.7
2018-11-26T02:20:19.069Z,18.1
2018-11-26T02:22:18.837Z,18.5
2018-11-26T02:24:18.587Z,18
2018-11-26T02:26:18.673Z,19.1
2018-11-26T02:28:19.443Z,16
2018-11-26T02:30:19.279Z,15.7
2018-11-26T02:32:19.065Z,17.9
2018-11-26T02:34:18.875Z,17.4
2018-11-26T02:36:19.011Z,17.4
2018-11-26T02:38:18.768Z,17.3
2018-11-26T02:40:19.093Z,15.8
2018-11-26T02:42:18.866Z,17.3
2018-11-26T02:44:18.657Z,17.3
2018-11-26T02:46:19.126Z,16
2018-11-26T02:48:18.922Z,16.1
2018-11-26T02:50:18.689Z,17.8
2018-11-26T02:52:19.435Z,15.8
2018-11-26T02:54:19.188Z,17.5
2018-11-26T02:56:19.267Z,14.4
2018-11-26T02:58:19.017Z,18.3
2018-11-26T03:00:18.819Z,17.1
2018-11-26T03:02:18.589Z,16.8
2018-11-26T03:04:19.371Z,15.9
2018-11-26T03:06:19.136Z,15.8
2018-11-26T03:08:18.905Z,15.4
2018-11-26T03:10:19.166Z,16.2
2018-11-26T03:12:18.913Z,15.7
2018-11-26T03:14:18.682Z,15.3
2018-11-26T03:16:19.282Z,16.4
2018-11-26T03:18:19.130Z,15.7
2018-11-26T03:20:18.902Z,16.6
2018-11-26T03:22:18.657Z,16.1
2018-11-26T03:24:19.409Z,15.5
2018-11-26T03:26:19.476Z,17.2
2018-11-26T03:28:19.244Z,15.4
2018-11-26T03:30:19.054Z,17.1
2018-11-26T03:32:18.895Z,16
2018-11-26T03:34:18.652Z,15.6
2018-11-26T03:36:19.201Z,15.3
2018-11-26T03:38:18.959Z,16
2018-11-26T03:40:19.200Z,14.9
2018-11-26T03:42:18.940Z,14.8
2018-11-26T03:44:18.699Z,16.5
2018-11-26T03:46:18.527Z,14.2
2018-11-26T03:48:19.293Z,14.4
2018-11-26T03:50:19.085Z,15.6
2018-11-26T03:52:19.162Z,17.3
2018-11-26T03:54:18.912Z,15.5
2018-11-26T03:56:19.461Z,15
2018-11-26T03:58:19.237Z,15.3
2018-11-26T04:00:19.045Z,16.1
2018-11-26T04:02:18.821Z,16.8
2018-11-26T04:04:18.593Z,15.6
2018-11-26T04:06:18.663Z,15.6
2018-11-26T04:08:19.438Z,16.6
2018-11-26T04:10:18.661Z,15.1
2018-11-26T04:12:19.429Z,14.6
2018-11-26T04:14:19.186Z,15.8
2018-11-26T04:16:19.285Z,16
2018-11-26T04:18:19.139Z,13
2018-11-26T04:20:18.920Z,14.6
2018-11-26T04:22:18.667Z,14.5
2018-11-26T04:24:19.445Z,14.7
2018-11-26T04:26:18.957Z,15.4
2018-11-26T04:28:18.697Z,12.1
2018-11-26T04:30:19.532Z,12.1
2018-11-26T04:32:19.284Z,12.1
2018-11-26T04:34:19.050Z,11.8
2018-11-26T04:36:19.294Z,13.3
2018-11-26T04:38:19.060Z,12.7
2018-11-26T04:40:19.273Z,12.1
2018-11-26T04:42:19.026Z,13.1
2018-11-26T04:44:18.779Z,13
2018-11-26T04:46:18.922Z,14.6
2018-11-26T04:48:18.673Z,12.3
2018-11-26T04:50:19.440Z,12.5
2018-11-26T04:52:19.206Z,13.8
2018-11-26T04:54:18.968Z,12.1
2018-11-26T04:56:19.002Z,12.6
2018-11-26T04:58:18.747Z,14.7
2018-11-26T05:00:18.497Z,11.8
2018-11-26T05:02:19.245Z,12.2
2018-11-26T05:04:19.042Z,14
2018-11-26T05:06:19.422Z,13.4
2018-11-26T05:08:19.206Z,13.4
2018-11-26T05:10:19.440Z,13.4
2018-11-26T05:12:19.211Z,14.2
2018-11-26T05:14:18.974Z,13.4
2018-11-26T05:16:19.375Z,14.4
2018-11-26T05:18:19.220Z,13.8
2018-11-26T05:20:19.178Z,12.6
2018-11-26T05:22:18.920Z,13.4
2018-11-26T05:24:18.678Z,12.8
2018-11-26T05:26:18.779Z,13.9
2018-11-26T05:28:18.537Z,13.4
2018-11-26T05:30:19.312Z,14
2018-11-26T05:32:19.094Z,12.3
2018-11-26T05:34:18.858Z,13.6
2018-11-26T05:36:19.365Z,15.1
2018-11-26T05:38:19.101Z,14
2018-11-26T05:40:19.327Z,13.3
2018-11-26T05:42:19.093Z,13.5
2018-11-26T05:44:18.871Z,12.7
2018-11-26T05:46:18.640Z,12.9
2018-11-26T05:48:19.413Z,13.5
2018-11-26T05:50:19.165Z,14.1
2018-11-26T05:52:18.919Z,13.6
2018-11-26T05:54:18.666Z,14
2018-11-26T05:56:19.257Z,14.7
2018-11-26T05:58:19.048Z,12.1
2018-11-26T06:00:18.823Z,14.8
2018-11-26T06:02:18.576Z,14
2018-11-26T06:04:19.340Z,13.8
2018-11-26T06:06:18.683Z,12.7
2018-11-26T06:08:19.456Z,14
2018-11-26T06:10:18.754Z,12.8
2018-11-26T06:12:18.520Z,12.3
2018-11-26T06:14:19.281Z,14
2018-11-26T06:16:18.895Z,15.4
2018-11-26T06:18:18.786Z,13.1
2018-11-26T06:20:19.703Z,12.5
2018-11-26T06:22:18.579Z,13.8
2018-11-26T06:24:19.367Z,13.6
2018-11-26T06:26:18.768Z,13
2018-11-26T06:28:18.551Z,14.2
2018-11-26T06:30:19.323Z,12.2
2018-11-26T06:32:19.104Z,13.9
2018-11-26T06:34:18.879Z,13.4
2018-11-26T06:36:18.919Z,13.7
2018-11-26T06:38:18.641Z,13.2
2018-11-26T06:40:18.890Z,13.3
2018-11-26T06:42:18.635Z,14.2
2018-11-26T06:44:19.384Z,14.9
2018-11-26T06:46:18.943Z,13.1
2018-11-26T06:48:18.706Z,12.4
2018-11-26T06:50:19.449Z,14.2
2018-11-26T06:52:19.233Z,14.8
2018-11-26T06:54:19.008Z,15.7
2018-11-26T06:56:18.531Z,13.2
2018-11-26T06:58:19.321Z,14.1
2018-11-26T07:00:19.106Z,15.4
2018-11-26T07:02:18.879Z,14.7
2018-11-26T07:04:18.628Z,14.9
2018-11-26T07:06:19.121Z,13.8
2018-11-26T07:08:18.880Z,16.1
2018-11-26T07:10:19.207Z,16
2018-11-26T07:12:18.982Z,15.6
2018-11-26T07:14:18.765Z,15.7
2018-11-26T07:16:19.259Z,16
2018-11-26T07:18:19.112Z,15.8
2018-11-26T07:20:18.874Z,15
2018-11-26T07:22:18.628Z,15.4
2018-11-26T07:24:19.409Z,15.5
2018-11-26T07:26:18.924Z,16.9
2018-11-26T07:28:18.705Z,14.8
2018-11-26T07:30:19.453Z,14.2
2018-11-26T07:32:19.207Z,15.6
2018-11-26T07:34:18.997Z,14.2
2018-11-26T07:36:19.119Z,14.8
2018-11-26T07:38:18.882Z,16.9
2018-11-26T07:40:19.131Z,16.2
2018-11-26T07:42:19.230Z,16.4
2018-11-26T07:44:19.024Z,16.2
2018-11-26T07:46:19.317Z,17.4
2018-11-26T07:48:19.084Z,16.3
2018-11-26T07:50:18.868Z,15.7
2018-11-26T07:52:18.922Z,15.6
2018-11-26T07:54:18.703Z,15.3
2018-11-26T07:56:18.800Z,16.8
2018-11-26T07:58:18.564Z,18.1
2018-11-26T08:00:19.340Z,15.6
2018-11-26T08:02:18.952Z,17
2018-11-26T08:04:18.720Z,16.6
2018-11-26T08:06:19.330Z,17.3
2018-11-26T08:08:19.106Z,16.4
2018-11-26T08:10:19.513Z,15.6
2018-11-26T08:12:19.261Z,17.2
2018-11-26T08:14:19.041Z,17.4
2018-11-26T08:16:19.323Z,17.8
2018-11-26T08:18:19.149Z,15.7
2018-11-26T08:20:18.921Z,18.3
2018-11-26T08:22:18.592Z,17.5
2018-11-26T08:24:19.345Z,16.9
2018-11-26T08:26:18.491Z,15.8
2018-11-26T08:28:19.272Z,17.5
2018-11-26T08:30:19.056Z,18.7
2018-11-26T08:32:18.813Z,17.6
2018-11-26T08:34:18.600Z,16.8
2018-11-26T08:36:19.319Z,17.5
2018-11-26T08:38:19.104Z,17.9
2018-11-26T08:40:19.346Z,18.3
2018-11-26T08:42:19.118Z,16.8
2018-11-26T08:44:18.904Z,18.5
2018-11-26T08:46:19.023Z,14
2018-11-26T08:48:18.769Z,17
2018-11-26T08:50:18.593Z,18.1
2018-11-26T08:52:19.345Z,18.4
2018-11-26T08:54:19.156Z,16.3
2018-11-26T08:56:18.904Z,18.9
2018-11-26T08:58:18.680Z,18.8
2018-11-26T09:00:19.453Z,16
2018-11-26T09:02:19.256Z,16.6
2018-11-26T09:04:19.027Z,17
2018-11-26T09:06:18.554Z,16.4
2018-11-26T09:08:19.311Z,17.2
2018-11-26T09:10:18.569Z,17
2018-11-26T09:12:19.348Z,18.5
2018-11-26T09:14:19.141Z,18.4
2018-11-26T09:16:19.263Z,16.5
2018-11-26T09:18:19.128Z,14.7
2018-11-26T09:20:18.870Z,15.8
2018-11-26T09:22:18.624Z,16.2
2018-11-26T09:24:19.398Z,15.2
2018-11-26T09:26:18.988Z,17
2018-11-26T09:28:18.738Z,16.2
2018-11-26T09:30:18.496Z,14.2
2018-11-26T09:32:19.228Z,13.1
2018-11-26T09:34:18.979Z,15.8
2018-11-26T09:36:18.501Z,15
2018-11-26T09:38:19.270Z,13.9
2018-11-26T09:40:18.524Z,15.6
2018-11-26T09:42:19.285Z,15
2018-11-26T09:44:19.031Z,15.1
2018-11-26T09:46:18.642Z,15.6
2018-11-26T09:48:19.433Z,14.7
2018-11-26T09:50:19.199Z,15.3
2018-11-26T09:52:18.952Z,15.5
2018-11-26T09:54:25.748Z,14.1
2018-11-26T09:56:18.567Z,14.1
2018-11-26T09:58:19.318Z,15.2
2018-11-26T10:00:19.079Z,15.2
2018-11-26T10:02:18.840Z,14.2
2018-11-26T10:04:18.591Z,14.7
2018-11-26T10:06:19.171Z,14.6
2018-11-26T10:08:18.926Z,14
2018-11-26T10:10:19.180Z,14.4
2018-11-26T10:12:18.914Z,14.6
2018-11-26T10:14:18.673Z,12.4
2018-11-26T10:16:18.493Z,15.7
2018-11-26T10:18:19.321Z,13.9
2018-11-26T10:20:19.113Z,12.3
2018-11-26T10:22:18.593Z,13.9
2018-11-26T10:24:19.352Z,13.3
2018-11-26T10:26:18.895Z,11.7
2018-11-26T10:28:18.648Z,11.6
2018-11-26T10:30:19.410Z,13.7
2018-11-26T10:32:19.205Z,12.4
2018-11-26T10:34:18.996Z,13
2018-11-26T10:36:19.096Z,13.1
2018-11-26T10:38:18.881Z,12.9
2018-11-26T10:40:19.136Z,13.9
2018-11-26T10:42:18.805Z,12.5
2018-11-26T10:44:18.563Z,12.4
2018-11-26T10:46:19.085Z,12.1
2018-11-26T10:48:18.843Z,11.9
2018-11-26T10:50:18.623Z,11.9
2018-11-26T10:52:19.382Z,13.1
2018-11-26T10:54:19.122Z,12.6
2018-11-26T10:56:18.534Z,12.3
2018-11-26T10:58:19.320Z,12.7
2018-11-26T11:00:19.214Z,13.4
2018-11-26T11:02:18.990Z,11.8
2018-11-26T11:04:18.743Z,12.7
2018-11-26T11:06:19.379Z,11.5
2018-11-26T11:08:19.135Z,13.3
2018-11-26T11:10:19.464Z,10.6
2018-11-26T11:12:19.223Z,11.2
2018-11-26T11:14:18.993Z,10.8
2018-11-26T11:16:18.813Z,10.7
2018-11-26T11:18:18.665Z,10.5
2018-11-26T11:20:19.515Z,10.3
2018-11-26T11:22:19.275Z,11.1
2018-11-26T11:24:19.043Z,10.2
2018-11-26T11:26:18.584Z,10.3
2018-11-26T11:28:19.363Z,10.8
2018-11-26T11:30:19.129Z,10.8
2018-11-26T11:32:18.921Z,10.2
2018-11-26T11:34:18.725Z,9.7
2018-11-26T11:36:19.232Z,9.9
2018-11-26T11:38:18.985Z,9.8
2018-11-26T11:40:19.236Z,10.9
2018-11-26T11:42:18.973Z,9.8
2018-11-26T11:44:18.706Z,10.8
2018-11-26T11:46:19.503Z,10.2
2018-11-26T11:48:19.280Z,10.1
2018-11-26T11:50:19.048Z,11.2
2018-11-26T11:52:18.777Z,10.5
2018-11-26T11:54:18.568Z,9.6
2018-11-26T11:56:19.130Z,9.9
2018-11-26T11:58:18.892Z,8.9
2018-11-26T12:00:18.647Z,8.4
2018-11-26T12:02:19.415Z,9.6
2018-11-26T12:04:19.181Z,9.4
2018-11-26T12:06:19.281Z,9
2018-11-26T12:08:19.038Z,10
2018-11-26T12:10:19.299Z,9.7
2018-11-26T12:12:19.048Z,9
2018-11-26T12:14:18.803Z,9.9
2018-11-26T12:16:18.849Z,9.5
2018-11-26T12:18:18.714Z,10.1
2018-11-26T12:20:19.493Z,9
2018-11-26T12:22:19.250Z,9.8
2018-11-26T12:24:18.999Z,10.1
2018-11-26T12:26:19.069Z,10.6
2018-11-26T12:28:18.820Z,8.5
2018-11-26T12:30:18.580Z,9.4
2018-11-26T12:32:19.333Z,9.5
2018-11-26T12:34:19.091Z,9.4
2018-11-26T12:36:19.273Z,10.2
2018-11-26T12:38:19.059Z,9.1
2018-11-26T12:40:19.462Z,8.5
2018-11-26T12:42:19.231Z,9.9
2018-11-26T12:44:18.974Z,10.9
2018-11-26T12:46:18.654Z,9.3
2018-11-26T12:48:19.417Z,8.5
2018-11-26T12:50:19.185Z,9.3
2018-11-26T12:52:18.960Z,10.4
2018-11-26T12:54:18.727Z,10.8
2018-11-26T12:56:18.823Z,9.8
2018-11-26T12:58:18.596Z,9.9
2018-11-26T13:00:19.456Z,10.2
2018-11-26T13:02:19.237Z,9.9
2018-11-26T13:04:18.993Z,10.1
2018-11-26T13:06:19.091Z,9.8
2018-11-26T13:08:18.879Z,9.5
2018-11-26T13:10:19.156Z,11.3
2018-11-26T13:12:18.784Z,10.6
2018-11-26T13:14:18.584Z,9.8
2018-11-26T13:16:19.329Z,10.9
2018-11-26T13:18:19.123Z,9.6
2018-11-26T13:20:18.878Z,9.6
2018-11-26T13:22:18.649Z,9.7
2018-11-26T13:24:19.422Z,9.7
2018-11-26T13:26:18.563Z,10.8
2018-11-26T13:28:19.322Z,11.6
2018-11-26T13:30:19.069Z,12.2
2018-11-26T13:32:19.258Z,12.4
2018-11-26T13:34:18.987Z,12.5
2018-11-26T13:36:18.655Z,12.6
2018-11-26T13:38:19.397Z,12
2018-11-26T13:40:18.713Z,13.6
2018-11-26T13:42:19.463Z,13.2
2018-11-26T13:44:19.205Z,11.7
2018-11-26T13:46:18.758Z,12.7
2018-11-26T13:48:18.509Z,12
2018-11-26T13:50:19.295Z,11.7
2018-11-26T13:52:19.068Z,10.8
2018-11-26T13:54:18.924Z,11.4
2018-11-26T13:56:19.049Z,12.8
2018-11-26T13:58:18.817Z,11
2018-11-26T14:00:18.580Z,10.5
2018-11-26T14:02:19.610Z,9.7
2018-11-26T14:04:19.394Z,11.5
2018-11-26T14:06:19.071Z,11
2018-11-26T14:08:18.828Z,12.1
2018-11-26T14:10:19.053Z,11.9
2018-11-26T14:12:18.827Z,11
2018-11-26T14:14:18.570Z,11.7
2018-11-26T14:16:19.375Z,11.8
2018-11-26T14:18:19.209Z,11.5
2018-11-26T14:20:18.960Z,10.3
2018-11-26T14:22:18.719Z,12.2
2018-11-26T14:24:19.471Z,11.1
2018-11-26T14:26:18.661Z,11.6
2018-11-26T14:28:19.436Z,11.8
2018-11-26T14:30:19.487Z,11.1
2018-11-26T14:32:19.290Z,9.7
2018-11-26T14:34:19.059Z,13.2
2018-11-26T14:36:18.767Z,11.8
2018-11-26T14:38:18.508Z,11.6
2018-11-26T14:40:18.804Z,12
2018-11-26T14:42:18.556Z,12.2
2018-11-26T14:44:19.306Z,13.4
2018-11-26T14:46:18.539Z,12.1
2018-11-26T14:48:19.296Z,11.6
2018-11-26T14:50:19.065Z,13.8
2018-11-26T14:52:18.819Z,12.2
2018-11-26T14:54:18.567Z,14
2018-11-26T14:56:18.773Z,12.4
2018-11-26T14:58:18.543Z,11.9
2018-11-26T15:00:19.297Z,10.1
2018-11-26T15:02:18.526Z,11.2
2018-11-26T15:04:19.267Z,12.9
2018-11-26T15:06:19.427Z,14
2018-11-26T15:08:19.177Z,11.9
2018-11-26T15:10:19.413Z,11.8
2018-11-26T15:12:19.181Z,12.8
2018-11-26T15:14:18.920Z,12.3
2018-11-26T15:16:18.947Z,12.3
2018-11-26T15:18:18.759Z,13.2
2018-11-26T15:20:18.550Z,12
2018-11-26T15:22:19.322Z,11.3
2018-11-26T15:24:19.078Z,11.6
2018-11-26T15:26:19.357Z,12.3
2018-11-26T15:28:19.121Z,12.8
2018-11-26T15:30:18.881Z,14
2018-11-26T15:32:18.624Z,11.9
2018-11-26T15:34:19.401Z,10.8
2018-11-26T15:36:18.987Z,12.1
2018-11-26T15:38:18.736Z,13.3
2018-11-26T15:40:19.005Z,11.3
2018-11-26T15:42:18.789Z,10.2
2018-11-26T15:44:18.532Z,11
2018-11-26T15:46:19.262Z,10.9
2018-11-26T15:48:19.007Z,11.5
2018-11-26T15:50:18.780Z,11.5
2018-11-26T15:52:18.514Z,11.1
2018-11-26T15:54:19.269Z,13.4
2018-11-26T15:56:18.864Z,11.6
2018-11-26T15:58:23.549Z,10.4
2018-11-26T16:00:18.520Z,12.1
2018-11-26T16:02:19.268Z,10.7
2018-11-26T16:04:19.025Z,12.4
2018-11-26T16:06:18.572Z,12.2
2018-11-26T16:08:19.325Z,10.9
2018-11-26T16:10:18.574Z,12.6
2018-11-26T16:12:19.339Z,11.2
2018-11-26T16:14:19.167Z,13.1
2018-11-26T16:16:18.878Z,12.2
2018-11-26T16:18:18.712Z,12
2018-11-26T16:20:18.498Z,11.2
2018-11-26T16:22:19.243Z,10.7
2018-11-26T16:24:19.008Z,10.3
2018-11-26T16:26:18.562Z,10.7
2018-11-26T16:28:19.324Z,11.1
2018-11-26T16:30:19.102Z,11.3
2018-11-26T16:32:18.862Z,10.9
2018-11-26T16:34:18.616Z,12.9
2018-11-26T16:36:19.406Z,11.6
2018-11-26T16:38:19.182Z,13.2
2018-11-26T16:40:19.618Z,10.1
2018-11-26T16:42:19.377Z,11.1
2018-11-26T16:44:19.131Z,11.7
2018-11-26T16:46:18.817Z,13.3
2018-11-26T16:48:18.577Z,11.9
2018-11-26T16:50:19.392Z,12.8
2018-11-26T16:52:19.152Z,10.9
2018-11-26T16:54:18.960Z,11.2
2018-11-26T16:56:19.040Z,12.3
2018-11-26T16:58:18.791Z,11.1
2018-11-26T17:00:18.531Z,14.3
2018-11-26T17:02:19.307Z,11.3
2018-11-26T17:04:19.035Z,12
2018-11-26T17:06:19.047Z,11
2018-11-26T17:08:18.802Z,11.5
2018-11-26T17:10:19.057Z,11.3
2018-11-26T17:12:18.810Z,11.7
2018-11-26T17:14:18.577Z,10.5
2018-11-26T17:16:19.141Z,10.9
2018-11-26T17:18:18.980Z,12.9
2018-11-26T17:20:18.819Z,11.1
2018-11-26T17:22:18.573Z,11.9
2018-11-26T17:24:19.337Z,10.9
2018-11-26T17:26:19.491Z,11.4
2018-11-26T17:28:19.249Z,12.1
2018-11-26T17:30:19.061Z,12.7
2018-11-26T17:32:18.846Z,11.7
2018-11-26T17:34:18.622Z,12.2
2018-11-26T17:36:19.158Z,13.4
2018-11-26T17:38:18.920Z,14.5
2018-11-26T17:40:19.181Z,11.7
2018-11-26T17:42:18.937Z,12.4
2018-11-26T17:44:18.691Z,11.4
2018-11-26T17:46:19.389Z,12.1
2018-11-26T17:48:19.132Z,12.8
2018-11-26T17:50:18.907Z,11.9
2018-11-26T17:52:18.679Z,12
2018-11-26T17:54:19.448Z,13
2018-11-26T17:56:18.499Z,11
2018-11-26T17:58:19.267Z,12.4
2018-11-26T18:00:19.023Z,10.4
2018-11-26T18:02:18.772Z,10.9
2018-11-26T18:04:18.522Z,11.4
2018-11-26T18:06:18.631Z,10.5
2018-11-26T18:08:19.381Z,10.7
2018-11-26T18:10:18.650Z,10.7
2018-11-26T18:12:19.414Z,10.2
2018-11-26T18:14:19.191Z,10.6
2018-11-26T18:16:19.257Z,10.1
2018-11-26T18:18:19.105Z,9.4
2018-11-26T18:20:18.882Z,9.3
2018-11-26T18:22:18.664Z,9.2
2018-11-26T18:24:19.439Z,9.6
2018-11-26T18:26:18.999Z,9.3
2018-11-26T18:28:18.735Z,9.3
2018-11-26T18:30:18.535Z,8.8
2018-11-26T18:32:19.312Z,9.1
2018-11-26T18:34:19.060Z,9.5
2018-11-26T18:36:19.192Z,8.6
2018-11-26T18:38:18.956Z,8.8
2018-11-26T18:40:19.181Z,8.9
2018-11-26T18:42:18.947Z,8.4
2018-11-26T18:44:18.702Z,8.2
2018-11-26T18:46:19.279Z,8
2018-11-26T18:48:19.038Z,8.4
2018-11-26T18:50:18.828Z,9.3
2018-11-26T18:52:18.582Z,10.5
2018-11-26T18:54:19.354Z,9.7
2018-11-26T18:56:18.843Z,8.9
2018-11-26T18:58:18.606Z,8.4
2018-11-26T19:00:19.375Z,9.4
2018-11-26T19:02:19.146Z,8.1
2018-11-26T19:04:18.899Z,7.4
2018-11-26T19:06:18.645Z,8.1
2018-11-26T19:08:19.388Z,8.9
2018-11-26T19:10:18.632Z,7.2
2018-11-26T19:12:19.380Z,7.8
2018-11-26T19:14:19.149Z,8.4
2018-11-26T19:16:18.727Z,7.7
2018-11-26T19:18:18.561Z,7.6
2018-11-26T19:20:19.327Z,7.7
2018-11-26T19:22:19.086Z,8.4
2018-11-26T19:24:18.852Z,6.5
2018-11-26T19:26:19.383Z,7
2018-11-26T19:28:20.373Z,7.2
2018-11-26T19:30:22.935Z,6.5
2018-11-26T19:32:19.039Z,6
2018-11-26T19:34:18.801Z,7.3
2018-11-26T19:36:19.184Z,5.7
2018-11-26T19:38:18.966Z,6.6
2018-11-26T19:40:19.301Z,6.8
2018-11-26T19:42:19.067Z,6.3
2018-11-26T19:44:18.979Z,6.4
2018-11-26T19:46:18.648Z,6.5
2018-11-26T19:48:19.430Z,6.9
2018-11-26T19:50:19.199Z,7.1
2018-11-26T19:52:18.838Z,6.1
2018-11-26T19:54:18.645Z,6.5
2018-11-26T19:56:19.195Z,6.8
2018-11-26T19:58:18.959Z,6.8
2018-11-26T20:00:18.729Z,7
2018-11-26T20:02:18.481Z,6.5
2018-11-26T20:04:19.232Z,7.2
2018-11-26T20:06:19.435Z,7.8
2018-11-26T20:08:19.209Z,7.1
2018-11-26T20:10:19.510Z,6.9
2018-11-26T20:12:19.271Z,6.2
2018-11-26T20:14:25.558Z,6.5
2018-11-26T20:16:18.525Z,7
2018-11-26T20:18:19.363Z,8
2018-11-26T20:20:19.116Z,7.4
2018-11-26T20:22:19.829Z,6.9
2018-11-26T20:24:18.656Z,5.6
2018-11-26T20:26:18.755Z,6.9
2018-11-26T20:28:18.535Z,7.1
2018-11-26T20:30:19.277Z,7.5
2018-11-26T20:32:19.013Z,7.9
2018-11-26T20:34:18.768Z,6.5
2018-11-26T20:36:19.349Z,6.1
2018-11-26T20:38:19.113Z,7.4
2018-11-26T20:40:19.455Z,7.2
2018-11-26T20:42:19.219Z,8.2
2018-11-26T20:44:18.968Z,7.4
2018-11-26T20:46:19.057Z,7.8
2018-11-26T20:48:18.834Z,8.7
2018-11-26T20:50:18.583Z,7.7
2018-11-26T20:52:19.363Z,7.7
2018-11-26T20:54:19.149Z,7.7
2018-11-26T20:56:18.674Z,8.3
2018-11-26T20:58:19.472Z,8.6
2018-11-26T21:00:19.248Z,8
2018-11-26T21:02:19.013Z,7.5
2018-11-26T21:04:18.739Z,8.1
2018-11-26T21:06:19.262Z,10.1
2018-11-26T21:08:19.046Z,7.6
2018-11-26T21:10:19.297Z,7.9
2018-11-26T21:12:19.059Z,8.2
2018-11-26T21:14:21.373Z,7.8
2018-11-26T21:16:18.678Z,8.2
2018-11-26T21:18:18.512Z,7.2
2018-11-26T21:20:19.292Z,7.7
2018-11-26T21:22:19.033Z,7.9
2018-11-26T21:24:18.818Z,7.9
2018-11-26T21:26:18.922Z,9.8
2018-11-26T21:28:18.711Z,10
2018-11-26T21:30:19.497Z,7.8
2018-11-26T21:32:19.264Z,9.2
2018-11-26T21:34:19.041Z,8.7
2018-11-26T21:36:18.641Z,8.6
2018-11-26T21:38:19.428Z,9.7
2018-11-26T21:40:20.376Z,9.6
2018-11-26T21:42:19.323Z,10.2
2018-11-26T21:44:19.122Z,9.7
2018-11-26T21:46:19.329Z,10.4
2018-11-26T21:48:19.071Z,10.8
2018-11-26T21:50:18.841Z,10.2
2018-11-26T21:52:18.599Z,10.7
2018-11-26T21:54:19.371Z,10.3
2018-11-26T21:56:19.222Z,10.3
2018-11-26T21:58:18.975Z,9.8
2018-11-26T22:00:18.728Z,11.1
2018-11-26T22:02:18.477Z,9.7
2018-11-26T22:04:19.236Z,10.8
2018-11-26T22:06:18.646Z,9
2018-11-26T22:08:19.401Z,9
2018-11-26T22:10:18.766Z,10.5
2018-11-26T22:12:18.536Z,9.2
2018-11-26T22:14:19.315Z,9.7
2018-11-26T22:16:18.860Z,9.8
2018-11-26T22:18:18.672Z,9.6
2018-11-26T22:20:19.413Z,9.2
2018-11-26T22:22:19.180Z,9.7
2018-11-26T22:24:18.930Z,9
2018-11-26T22:26:19.039Z,9.7
2018-11-26T22:28:18.820Z,9.8
2018-11-26T22:30:18.569Z,9.9
2018-11-26T22:32:19.321Z,9.1
2018-11-26T22:34:19.069Z,9.8
2018-11-26T22:36:18.680Z,10.5
2018-11-26T22:38:19.441Z,10.8
2018-11-26T22:40:18.714Z,10.2
2018-11-26T22:42:19.472Z,9.6
2018-11-26T22:44:19.203Z,10.4
2018-11-26T22:46:19.258Z,9.8
2018-11-26T22:48:18.995Z,9.3
2018-11-26T22:50:18.758Z,10.5
2018-11-26T22:52:18.509Z,10.6
2018-11-26T22:54:19.261Z,10.3
2018-11-26T22:56:18.759Z,9
2018-11-26T22:58:18.519Z,9.7
2018-11-26T23:00:19.273Z,8.6
2018-11-26T23:02:19.037Z,9.9
2018-11-26T23:04:18.796Z,10.5
2018-11-26T23:06:19.437Z,9.4
2018-11-26T23:08:19.175Z,9.1
2018-11-26T23:10:19.463Z,9.7
2018-11-26T23:12:19.230Z,8.8
2018-11-26T23:14:18.995Z,10.6
2018-11-26T23:16:18.722Z,8.7
2018-11-26T23:18:18.574Z,9.3
2018-11-26T23:20:19.367Z,10.9
2018-11-26T23:22:19.111Z,9
2018-11-26T23:24:18.873Z,9.2
2018-11-26T23:26:18.602Z,11.1
2018-11-26T23:28:19.353Z,11.4
2018-11-26T23:30:19.154Z,9.8
2018-11-26T23:32:18.903Z,10
2018-11-26T23:34:18.639Z,9.3
2018-11-26T23:36:18.677Z,10.6
2018-11-26T23:38:19.435Z,9.1
2018-11-26T23:40:18.679Z,10.1
2018-11-26T23:42:19.459Z,9
2018-11-26T23:44:19.190Z,10.3
2018-11-26T23:46:19.219Z,9.7
2018-11-26T23:48:18.973Z,10.6
2018-11-26T23:50:18.767Z,9.2
2018-11-26T23:52:18.539Z,8.8
2018-11-26T23:54:19.269Z,9
2018-11-26T23:56:18.956Z,11
2018-11-26T23:58:18.717Z,9.7
